Time;durP1;ratioP1;P1;durP2;ratioP2;P2;SDS_P1;SDS_P2;PMS_P1;PMS_P2;Temp;Humidity;BMP_temperature;BMP_pressure;BME280_temperature;BME280_humidity;BME280_pressure;Samples;Min_cycle;Max_cycle;Signal;HPM_P1;HPM_P2
2021/03/17 00:01:08;;;;;;;2.05;1.45;;;;;11.50;102352.00;;;;5085867;28;20224;-76
2021/03/17 00:03:35;;;;;;;2.50;1.67;;;;;11.60;102353.00;;;;5087782;28;20297;-77
2021/03/17 00:06:03;;;;;;;2.40;1.60;;;;;11.60;102343.00;;;;5087819;28;20194;-76
2021/03/17 00:08:30;;;;;;;1.83;1.10;;;;;11.60;102347.00;;;;5084500;28;20696;-76
2021/03/17 00:10:57;;;;;;;2.70;1.70;;;;;11.60;102344.00;;;;5080481;28;20201;-76
2021/03/17 00:13:25;;;;;;;1.73;1.30;;;;;11.50;102351.00;;;;5072844;28;20198;-76
2021/03/17 00:15:53;;;;;;;1.80;1.17;;;;;11.50;102342.00;;;;5071676;28;20252;-76
2021/03/17 00:18:20;;;;;;;1.73;1.15;;;;;11.50;102349.00;;;;5088032;28;20203;-77
2021/03/17 00:20:47;;;;;;;2.08;1.50;;;;;11.50;102341.00;;;;5077829;28;20209;-76
2021/03/17 00:23:14;;;;;;;1.90;1.35;;;;;11.50;102341.00;;;;5087706;28;20226;-76
2021/03/17 00:25:41;;;;;;;1.95;1.08;;;;;11.50;102347.00;;;;5085280;28;20195;-76
2021/03/17 00:28:09;;;;;;;2.08;1.58;;;;;11.50;102345.00;;;;5086968;28;20190;-76
2021/03/17 00:30:39;;;;;;;2.10;1.33;;;;;11.50;102347.00;;;;5072410;28;20198;-76
2021/03/17 00:33:09;;;;;;;1.80;1.30;;;;;11.50;102348.00;;;;5088668;28;20220;-76
2021/03/17 00:35:37;;;;;;;1.63;1.30;;;;;11.50;102356.00;;;;5084527;28;20202;-76
2021/03/17 00:38:04;;;;;;;1.55;1.23;;;;;11.50;102352.00;;;;5083780;28;20198;-76
2021/03/17 00:40:31;;;;;;;2.60;1.58;;;;;11.50;102351.00;;;;5075337;28;20199;-76
2021/03/17 00:42:58;;;;;;;2.00;1.50;;;;;11.50;102359.00;;;;5081390;28;20221;-76
2021/03/17 00:45:25;;;;;;;1.83;1.30;;;;;11.50;102360.00;;;;5092067;28;20198;-76
2021/03/17 00:47:52;;;;;;;2.10;1.50;;;;;11.50;102357.00;;;;5091654;28;20234;-76
2021/03/17 00:50:19;;;;;;;1.50;1.10;;;;;11.50;102348.00;;;;5087392;28;20201;-76
2021/03/17 00:52:47;;;;;;;2.30;1.50;;;;;11.50;102359.00;;;;5090260;28;20232;-76
2021/03/17 00:55:14;;;;;;;2.58;1.65;;;;;11.50;102359.00;;;;5092026;28;20199;-76
2021/03/17 00:57:41;;;;;;;2.08;1.52;;;;;11.50;102364.00;;;;5091477;28;20191;-76
2021/03/17 01:00:10;;;;;;;2.10;1.42;;;;;11.50;102356.00;;;;5080354;28;20190;-76
2021/03/17 01:02:38;;;;;;;1.40;1.10;;;;;11.50;102360.00;;;;5084699;28;20222;-76
2021/03/17 01:05:06;;;;;;;2.50;2.00;;;;;11.50;102367.00;;;;5073244;28;20203;-76
2021/03/17 01:07:32;;;;;;;1.90;1.33;;;;;11.50;102364.00;;;;5091126;28;20594;-76
2021/03/17 01:10:00;;;;;;;1.50;1.30;;;;;11.50;102367.00;;;;5079535;28;20195;-76
2021/03/17 01:12:27;;;;;;;1.90;1.40;;;;;11.60;102365.00;;;;5085687;28;20224;-76
2021/03/17 01:14:54;;;;;;;1.88;1.40;;;;;11.60;102369.00;;;;5091061;28;20214;-76
2021/03/17 01:17:21;;;;;;;1.40;1.10;;;;;11.60;102369.00;;;;5084260;28;20672;-76
2021/03/17 01:19:47;;;;;;;1.63;1.13;;;;;11.60;102369.00;;;;5087995;28;20202;-76
2021/03/17 01:22:14;;;;;;;1.63;1.17;;;;;11.60;102363.00;;;;5086752;28;20219;-76
2021/03/17 01:24:41;;;;;;;2.03;1.40;;;;;11.50;102367.00;;;;5080982;28;20198;-76
2021/03/17 01:27:09;;;;;;;2.65;1.70;;;;;11.50;102374.00;;;;5090764;28;20201;-75
2021/03/17 01:29:35;;;;;;;1.73;1.25;;;;;11.50;102383.00;;;;5083273;28;20203;-76
2021/03/17 01:32:02;;;;;;;1.33;0.98;;;;;11.50;102384.00;;;;5073309;28;20225;-76
2021/03/17 01:34:29;;;;;;;1.67;1.10;;;;;11.40;102388.00;;;;5081721;28;20190;-76
2021/03/17 01:36:56;;;;;;;1.40;1.00;;;;;11.40;102391.00;;;;5081565;28;20733;-76
2021/03/17 01:39:22;;;;;;;1.60;0.98;;;;;11.40;102398.00;;;;5087351;28;20199;-76
2021/03/17 01:41:49;;;;;;;1.70;1.10;;;;;11.40;102391.00;;;;5080713;28;20218;-76
2021/03/17 01:44:17;;;;;;;0.95;0.85;;;;;11.30;102401.00;;;;5083142;28;20190;-76
2021/03/17 01:46:43;;;;;;;0.95;0.75;;;;;11.30;102407.00;;;;5089777;28;20199;-76
2021/03/17 01:49:10;;;;;;;0.82;0.70;;;;;11.30;102413.00;;;;5074176;28;20712;-76
2021/03/17 01:51:37;;;;;;;1.73;1.25;;;;;11.30;102417.00;;;;5071021;28;20203;-76
2021/03/17 01:54:05;;;;;;;1.33;1.00;;;;;11.30;102423.00;;;;5090037;28;20541;-76
2021/03/17 01:56:32;;;;;;;1.02;0.70;;;;;11.30;102413.00;;;;5086501;28;20186;-76
2021/03/17 01:59:00;;;;;;;0.95;0.80;;;;;11.20;102406.00;;;;5071152;28;20202;-76
2021/03/17 02:01:28;;;;;;;0.68;0.63;;;;;11.20;102410.00;;;;5089958;28;20218;-76
2021/03/17 02:03:54;;;;;;;0.85;0.68;;;;;11.20;102415.00;;;;5080835;28;20264;-76
2021/03/17 02:06:21;;;;;;;0.98;0.80;;;;;11.20;102407.00;;;;5070857;28;20205;-76
2021/03/17 02:08:48;;;;;;;1.48;0.90;;;;;11.20;102404.00;;;;5073916;28;20201;-76
2021/03/17 02:11:15;;;;;;;0.70;0.45;;;;;11.20;102400.00;;;;5091181;28;20937;-76
2021/03/17 02:14:06;;;;;;;0.93;0.65;;;;;11.20;102395.00;;;;5089169;28;20198;-76
2021/03/17 02:16:39;;;;;;;0.80;0.60;;;;;11.10;102382.00;;;;5090458;28;20692;-76
2021/03/17 02:19:47;;;;;;;1.13;0.80;;;;;11.10;102374.00;;;;5078577;28;20251;-76
2021/03/17 02:22:44;;;;;;;1.00;0.73;;;;;11.10;102371.00;;;;5074326;28;20230;-76
2021/03/17 02:25:51;;;;;;;0.85;0.60;;;;;11.10;102362.00;;;;5082880;28;20274;-76
2021/03/17 02:28:28;;;;;;;0.80;0.60;;;;;11.10;102364.00;;;;5020700;28;20208;-76
2021/03/17 02:31:25;;;;;;;0.80;0.63;;;;;11.00;102362.00;;;;5008794;28;20212;-76
2021/03/17 02:33:57;;;;;;;1.02;0.63;;;;;11.10;102361.00;;;;5061787;28;20253;-76
2021/03/17 02:36:31;;;;;;;1.13;0.77;;;;;11.10;102361.00;;;;5075797;28;20212;-76
2021/03/17 02:39:05;;;;;;;0.90;0.43;;;;;11.00;102354.00;;;;5086740;28;20183;-76
2021/03/17 02:41:38;;;;;;;0.90;0.60;;;;;11.10;102364.00;;;;5070179;28;20355;-76
2021/03/17 02:44:10;;;;;;;0.60;0.60;;;;;11.10;102351.00;;;;5087033;28;20248;-76
2021/03/17 02:46:40;;;;;;;0.80;0.60;;;;;11.10;102358.00;;;;5073963;28;20229;-76
2021/03/17 02:49:13;;;;;;;1.10;0.80;;;;;11.10;102355.00;;;;5069462;28;20235;-76
2021/03/17 02:51:43;;;;;;;0.70;0.50;;;;;11.20;102361.00;;;;5069781;28;20217;-76
2021/03/17 02:54:12;;;;;;;0.70;0.57;;;;;11.20;102346.00;;;;5082691;28;20676;-76
2021/03/17 02:56:44;;;;;;;0.82;0.63;;;;;11.10;102340.00;;;;5089221;28;20188;-76
2021/03/17 02:59:14;;;;;;;0.70;0.70;;;;;11.20;102335.00;;;;5090249;28;20202;-76
2021/03/17 03:01:42;;;;;;;0.90;0.73;;;;;11.20;102334.00;;;;5088851;28;20221;-76
2021/03/17 03:04:11;;;;;;;1.23;0.90;;;;;11.20;102332.00;;;;5087842;28;20206;-76
2021/03/17 03:06:40;;;;;;;0.85;0.55;;;;;11.20;102339.00;;;;5088097;28;20595;-76
2021/03/17 03:09:08;;;;;;;0.82;0.60;;;;;11.20;102343.00;;;;5082435;28;20603;-76
2021/03/17 03:11:35;;;;;;;2.13;0.80;;;;;11.20;102334.00;;;;5072959;28;20252;-76
2021/03/17 03:14:04;;;;;;;0.73;0.73;;;;;11.20;102339.00;;;;5069928;28;20195;-76
2021/03/17 03:16:33;;;;;;;0.80;0.60;;;;;11.10;102335.00;;;;5069982;28;20628;-76
2021/03/17 03:19:01;;;;;;;1.20;0.73;;;;;11.10;102343.00;;;;5088042;28;20259;-76
2021/03/17 03:21:29;;;;;;;0.85;0.70;;;;;11.10;102335.00;;;;5084162;28;20272;-76
2021/03/17 03:23:57;;;;;;;0.88;0.75;;;;;11.10;102338.00;;;;5072965;28;20284;-76
2021/03/17 03:26:25;;;;;;;0.60;0.50;;;;;11.10;102344.00;;;;5088811;28;20214;-76
2021/03/17 03:28:53;;;;;;;0.85;0.75;;;;;11.10;102339.00;;;;5088136;28;20221;-76
2021/03/17 03:31:20;;;;;;;0.85;0.77;;;;;11.10;102343.00;;;;5089671;28;20222;-76
2021/03/17 03:33:47;;;;;;;0.90;0.65;;;;;11.10;102344.00;;;;5087762;28;20578;-76
2021/03/17 03:36:14;;;;;;;0.95;0.80;;;;;11.10;102345.00;;;;5089775;28;20243;-76
2021/03/17 03:38:42;;;;;;;0.80;0.70;;;;;11.10;102347.00;;;;5081911;28;20194;-76
2021/03/17 03:41:08;;;;;;;0.98;0.77;;;;;11.10;102350.00;;;;5088207;28;20191;-76
2021/03/17 03:43:36;;;;;;;1.10;0.70;;;;;11.10;102354.00;;;;5088368;28;20198;-76
2021/03/17 03:46:03;;;;;;;1.13;0.90;;;;;11.10;102349.00;;;;5087490;28;20217;-76
2021/03/17 03:48:30;;;;;;;1.10;0.80;;;;;11.10;102356.00;;;;5078845;28;20222;-75
2021/03/17 03:50:57;;;;;;;1.00;0.65;;;;;11.10;102364.00;;;;5087886;28;20559;-76
2021/03/17 03:53:48;;;;;;;0.60;0.45;;;;;11.00;102364.00;;;;5088068;28;20198;-76
2021/03/17 03:56:22;;;;;;;1.15;0.60;;;;;11.10;102362.00;;;;5073793;28;20243;-76
2021/03/17 03:58:54;;;;;;;1.38;0.98;;;;;11.10;102365.00;;;;5086920;28;20263;-76
2021/03/17 04:01:28;;;;;;;0.80;0.70;;;;;11.10;102368.00;;;;5082629;28;20591;-76
2021/03/17 04:03:58;;;;;;;1.20;0.85;;;;;11.10;102363.00;;;;5088180;28;20194;-76
2021/03/17 04:06:26;;;;;;;0.82;0.60;;;;;11.10;102365.00;;;;5087796;28;20198;-76
2021/03/17 04:08:58;;;;;;;1.02;0.45;;;;;11.10;102357.00;;;;5084316;28;21075;-76
2021/03/17 04:11:25;;;;;;;0.85;0.52;;;;;11.10;102359.00;;;;5068159;28;20253;-76
2021/03/17 04:13:53;;;;;;;1.67;0.80;;;;;11.20;102370.00;;;;5069643;28;20588;-76
2021/03/17 04:16:23;;;;;;;4.03;1.00;;;;;11.20;102367.00;;;;5088522;28;20194;-76
2021/03/17 04:18:53;;;;;;;0.70;0.70;;;;;11.20;102372.00;;;;5085607;28;20252;-76
2021/03/17 04:21:23;;;;;;;0.77;0.65;;;;;11.20;102374.00;;;;5088121;28;20220;-76
2021/03/17 04:23:51;;;;;;;0.50;0.50;;;;;11.30;102385.00;;;;5086006;28;20195;-76
2021/03/17 04:26:20;;;;;;;1.52;0.60;;;;;11.20;102388.00;;;;5087530;28;20224;-76
2021/03/17 04:28:48;;;;;;;0.52;0.50;;;;;11.20;102394.00;;;;5071452;28;20261;-76
2021/03/17 04:31:16;;;;;;;1.25;0.40;;;;;11.20;102393.00;;;;5083486;28;20199;-76
2021/03/17 04:33:44;;;;;;;0.93;0.65;;;;;11.20;102390.00;;;;5068468;28;20195;-76
2021/03/17 04:36:12;;;;;;;0.70;0.57;;;;;11.20;102398.00;;;;5081399;28;20578;-76
2021/03/17 04:38:40;;;;;;;0.75;0.47;;;;;11.20;102393.00;;;;5087088;28;20194;-76
2021/03/17 04:41:07;;;;;;;1.00;0.70;;;;;11.20;102390.00;;;;5088275;28;20198;-76
2021/03/17 04:43:37;;;;;;;0.80;0.60;;;;;11.20;102397.00;;;;5072362;28;20221;-76
2021/03/17 04:46:05;;;;;;;1.15;0.50;;;;;11.30;102412.00;;;;5068670;28;20579;-75
2021/03/17 04:48:35;;;;;;;0.65;0.52;;;;;11.30;102399.00;;;;5085678;28;20252;-76
2021/03/17 04:51:03;;;;;;;0.52;0.40;;;;;11.30;102399.00;;;;5080406;28;20199;-76
2021/03/17 04:53:30;;;;;;;0.73;0.40;;;;;11.30;102402.00;;;;5081959;28;20685;-76
2021/03/17 04:55:57;;;;;;;0.63;0.57;;;;;11.30;102403.00;;;;5076692;28;20187;-76
2021/03/17 04:58:25;;;;;;;0.52;0.50;;;;;11.30;102395.00;;;;5068871;28;20668;-76
2021/03/17 05:00:54;;;;;;;1.83;0.65;;;;;11.30;102401.00;;;;5075404;28;20211;-76
2021/03/17 05:03:24;;;;;;;0.80;0.60;;;;;11.30;102404.00;;;;5079927;28;20222;-76
2021/03/17 05:05:52;;;;;;;0.60;0.50;;;;;11.30;102400.00;;;;5086598;28;20656;-76
2021/03/17 05:08:21;;;;;;;0.80;0.50;;;;;11.30;102404.00;;;;5087117;28;20198;-76
2021/03/17 05:10:48;;;;;;;0.68;0.40;;;;;11.30;102398.00;;;;5085937;28;20206;-76
2021/03/17 05:13:16;;;;;;;0.95;0.57;;;;;11.30;102401.00;;;;5082355;28;20209;-76
2021/03/17 05:15:45;;;;;;;0.20;0.20;;;;;11.20;102404.00;;;;5080689;28;20252;-76
2021/03/17 05:18:16;;;;;;;1.77;0.60;;;;;11.20;102398.00;;;;5087199;28;20206;-76
2021/03/17 05:20:47;;;;;;;0.50;0.50;;;;;11.20;102403.00;;;;5074149;28;20206;-76
2021/03/17 05:23:17;;;;;;;0.90;0.57;;;;;11.20;102405.00;;;;5071479;28;20214;-76
2021/03/17 05:25:44;;;;;;;0.32;0.20;;;;;11.20;102392.00;;;;5084193;28;20222;-76
2021/03/17 05:28:14;;;;;;;0.22;0.20;;;;;11.20;102401.00;;;;5090021;28;20214;-76
2021/03/17 05:30:44;;;;;;;0.30;0.22;;;;;11.20;102402.00;;;;5090682;28;20190;-76
2021/03/17 05:33:12;;;;;;;1.23;0.55;;;;;11.20;102403.00;;;;5085663;28;20210;-76
2021/03/17 05:35:39;;;;;;;0.22;0.20;;;;;11.20;102396.00;;;;5070734;28;20222;-76
2021/03/17 05:38:07;;;;;;;0.68;0.40;;;;;11.20;102405.00;;;;5072004;28;20222;-76
2021/03/17 05:40:35;;;;;;;0.50;0.43;;;;;11.30;102415.00;;;;5086920;28;20191;-76
2021/03/17 05:43:04;;;;;;;0.75;0.50;;;;;11.30;102409.00;;;;5074903;28;20252;-76
2021/03/17 05:45:34;;;;;;;0.50;0.40;;;;;11.30;102395.00;;;;5091537;28;20198;-76
2021/03/17 05:48:02;;;;;;;0.60;0.40;;;;;11.30;102395.00;;;;5089681;28;20275;-76
2021/03/17 05:50:30;;;;;;;0.70;0.43;;;;;11.30;102392.00;;;;5089201;28;20218;-76
2021/03/17 05:52:57;;;;;;;0.43;0.40;;;;;11.30;102386.00;;;;5073743;28;20239;-76
2021/03/17 05:55:24;;;;;;;0.50;0.40;;;;;11.30;102384.00;;;;5090640;28;20198;-76
2021/03/17 05:57:51;;;;;;;0.35;0.25;;;;;11.30;102381.00;;;;5090084;28;20656;-76
2021/03/17 06:00:19;;;;;;;0.60;0.32;;;;;11.40;102384.00;;;;5086097;28;20194;-76
2021/03/17 06:02:48;;;;;;;0.70;0.50;;;;;11.40;102391.00;;;;5078909;28;20735;-76
2021/03/17 06:05:18;;;;;;;0.60;0.35;;;;;11.40;102399.00;;;;5074015;28;20198;-76
2021/03/17 06:07:54;;;;;;;0.85;0.70;;;;;11.40;102398.00;;;;5072452;28;20195;-76
2021/03/17 06:10:21;;;;;;;0.40;0.30;;;;;11.40;102396.00;;;;5079048;28;20285;-76
2021/03/17 06:12:51;;;;;;;0.45;0.30;;;;;11.40;102394.00;;;;5076983;28;20219;-76
2021/03/17 06:15:22;;;;;;;0.40;0.40;;;;;11.50;102404.00;;;;5077450;28;20198;-76
2021/03/17 06:17:55;;;;;;;0.80;0.60;;;;;11.50;102399.00;;;;5074259;28;20285;-75
2021/03/17 06:20:22;;;;;;;0.68;0.47;;;;;11.50;102402.00;;;;5080335;28;20190;-75
2021/03/17 06:22:50;;;;;;;0.63;0.50;;;;;11.50;102402.00;;;;5074972;28;20234;-75
2021/03/17 06:25:18;;;;;;;1.58;0.55;;;;;11.50;102411.00;;;;5073113;28;20202;-75
2021/03/17 06:27:45;;;;;;;1.02;0.77;;;;;11.60;102424.00;;;;5080518;28;20191;-76
2021/03/17 06:30:14;;;;;;;2.50;0.60;;;;;11.60;102417.00;;;;5071675;28;20562;-76
2021/03/17 06:32:41;;;;;;;1.27;0.90;;;;;11.60;102421.00;;;;5078375;28;20280;-74
2021/03/17 06:35:19;;;;;;;1.13;0.50;;;;;11.50;102422.00;;;;5078075;28;20195;-74
2021/03/17 06:37:47;;;;;;;0.80;0.70;;;;;11.60;102422.00;;;;5069287;28;20203;-74
2021/03/17 06:40:23;;;;;;;1.05;0.55;;;;;11.50;102416.00;;;;5079350;28;20205;-75
2021/03/17 06:42:50;;;;;;;0.65;0.60;;;;;11.60;102418.00;;;;5088350;28;20217;-75
2021/03/17 06:45:30;;;;;;;0.90;0.70;;;;;11.50;102425.00;;;;5070491;28;20203;-75
2021/03/17 06:47:56;;;;;;;0.65;0.45;;;;;11.50;102425.00;;;;5081766;28;20219;-75
2021/03/17 06:50:29;;;;;;;5.78;0.50;;;;;11.50;102431.00;;;;5078760;28;20194;-75
2021/03/17 06:52:56;;;;;;;0.90;0.52;;;;;11.50;102423.00;;;;5079496;28;20205;-74
2021/03/17 06:55:24;;;;;;;0.93;0.73;;;;;11.50;102422.00;;;;5078183;28;20205;-75
2021/03/17 06:57:52;;;;;;;1.13;0.35;;;;;11.50;102421.00;;;;5076442;28;20205;-75
2021/03/17 07:00:25;;;;;;;1.10;0.63;;;;;11.50;102425.00;;;;5077400;28;20191;-75
2021/03/17 07:03:00;;;;;;;6.28;0.63;;;;;11.50;102420.00;;;;5075194;28;20219;-74
2021/03/17 07:05:36;;;;;;;0.88;0.57;;;;;11.50;102426.00;;;;5080103;28;20567;-75
2021/03/17 07:08:04;;;;;;;0.55;0.40;;;;;11.50;102429.00;;;;5076928;28;20202;-75
2021/03/17 07:10:35;;;;;;;0.65;0.55;;;;;11.50;102438.00;;;;5075847;28;20221;-75
2021/03/17 07:13:04;;;;;;;2.15;0.88;;;;;11.50;102446.00;;;;5077913;28;20225;-75
2021/03/17 07:15:32;;;;;;;0.82;0.40;;;;;11.50;102452.00;;;;5077502;28;20575;-75
2021/03/17 07:18:19;;;;;;;0.40;0.30;;;;;11.40;102462.00;;;;5075989;28;20206;-75
2021/03/17 07:20:48;;;;;;;2.42;0.50;;;;;11.50;102460.00;;;;5088806;28;20247;-75
2021/03/17 07:23:23;;;;;;;0.55;0.35;;;;;11.50;102458.00;;;;5088155;28;20214;-75
2021/03/17 07:26:18;;;;;;;0.90;0.60;;;;;11.40;102460.00;;;;5088539;28;20583;-74
2021/03/17 07:29:11;;;;;;;2.58;0.30;;;;;11.40;102454.00;;;;5087409;28;20190;-75
2021/03/17 07:31:40;;;;;;;0.93;0.40;;;;;11.50;102463.00;;;;5068799;28;20211;-75
2021/03/17 07:34:18;;;;;;;0.95;0.35;;;;;11.40;102459.00;;;;5069163;28;20202;-74
2021/03/17 07:36:48;;;;;;;1.38;0.43;;;;;11.50;102457.00;;;;5068241;28;20198;-75
2021/03/17 07:39:18;;;;;;;2.08;0.60;;;;;11.50;102459.00;;;;5077883;28;20607;-74
2021/03/17 07:41:46;;;;;;;0.40;0.30;;;;;11.50;102465.00;;;;5081118;28;20217;-75
2021/03/17 07:44:15;;;;;;;0.47;0.30;;;;;11.50;102472.00;;;;5083614;28;20228;-75
2021/03/17 07:46:45;;;;;;;1.58;0.30;;;;;11.50;102463.00;;;;5087279;28;20879;-75
2021/03/17 07:49:12;;;;;;;1.00;0.13;;;;;11.50;102470.00;;;;5085996;28;20194;-74
2021/03/17 07:51:50;;;;;;;0.35;0.20;;;;;11.40;102473.00;;;;5079543;28;20190;-74
2021/03/17 07:54:25;;;;;;;1.17;0.10;;;;;11.50;102472.00;;;;5085338;28;20202;-74
2021/03/17 07:56:53;;;;;;;0.45;0.20;;;;;11.60;102477.00;;;;5077387;28;20198;-75
2021/03/17 07:59:22;;;;;;;0.30;0.25;;;;;11.60;102478.00;;;;5078097;28;20581;-75
2021/03/17 08:01:50;;;;;;;0.40;0.20;;;;;11.60;102468.00;;;;5079738;28;20206;-74
2021/03/17 08:04:17;;;;;;;0.50;0.20;;;;;11.60;102478.00;;;;5083348;28;20247;-75
2021/03/17 08:06:43;;;;;;;0.15;0.10;;;;;11.70;102493.00;;;;5086293;28;20749;-76
2021/03/17 08:09:11;;;;;;;1.23;0.20;;;;;11.70;102490.00;;;;5088806;28;20206;-75
2021/03/17 08:11:38;;;;;;;0.45;0.10;;;;;11.80;102496.00;;;;5087992;28;20205;-75
2021/03/17 08:14:07;;;;;;;1.13;0.20;;;;;11.80;102491.00;;;;5088376;28;20194;-75
2021/03/17 08:16:36;;;;;;;1.40;0.20;;;;;11.80;102498.00;;;;5086042;28;20206;-75
2021/03/17 08:19:20;;;;;;;0.52;0.17;;;;;11.70;102499.00;;;;5088364;28;20218;-76
2021/03/17 08:21:49;;;;;;;0.60;0.10;;;;;11.80;102502.00;;;;5070394;28;20332;-75
2021/03/17 08:24:38;;;;;;;0.38;0.20;;;;;11.80;102508.00;;;;5077384;28;20195;-75
2021/03/17 08:27:18;;;;;;;0.40;0.20;;;;;11.90;102510.00;;;;5069899;28;20198;-75
2021/03/17 08:29:47;;;;;;;0.60;0.25;;;;;12.00;102499.00;;;;5074251;28;20696;-75
2021/03/17 08:32:15;;;;;;;0.30;0.10;;;;;12.10;102505.00;;;;5073268;28;20218;-76
2021/03/17 08:34:53;;;;;;;0.45;0.17;;;;;12.10;102500.00;;;;5083807;28;20203;-76
2021/03/17 08:37:20;;;;;;;1.40;0.17;;;;;12.20;102501.00;;;;5083849;28;20238;-76
2021/03/17 08:39:48;;;;;;;1.40;0.47;;;;;12.30;102504.00;;;;5076556;28;21826;-76
2021/03/17 08:42:26;;;;;;;4.20;0.63;;;;;12.40;102510.00;;;;5078996;28;20218;-77
2021/03/17 08:44:55;;;;;;;1.20;0.30;;;;;12.40;102496.00;;;;5076176;28;20309;-76
2021/03/17 08:47:27;;;;;;;0.73;0.28;;;;;12.50;102502.00;;;;5079356;28;20230;-76
2021/03/17 08:49:56;;;;;;;1.17;0.28;;;;;12.60;102503.00;;;;5083955;28;20217;-76
2021/03/17 08:52:37;;;;;;;2.00;0.20;;;;;12.70;102494.00;;;;5073119;28;20677;-76
2021/03/17 08:55:08;;;;;;;0.82;0.15;;;;;12.80;102505.00;;;;5088732;28;20239;-76
2021/03/17 08:58:00;;;;;;;0.85;0.30;;;;;12.80;102518.00;;;;5088143;28;20652;-75
2021/03/17 09:00:54;;;;;;;1.67;0.30;;;;;12.80;102499.00;;;;5090216;28;20251;-76
2021/03/17 09:03:43;;;;;;;1.35;0.40;;;;;12.80;102503.00;;;;5089768;28;20632;-76
2021/03/17 09:06:29;;;;;;;1.52;0.25;;;;;12.90;102507.00;;;;5087883;28;20248;-75
2021/03/17 09:09:06;;;;;;;0.60;0.32;;;;;12.80;102520.00;;;;5089100;28;20600;-76
2021/03/17 09:12:00;;;;;;;1.40;0.32;;;;;12.80;102503.00;;;;5091848;28;20228;-76
2021/03/17 09:14:39;;;;;;;1.23;0.20;;;;;12.80;102509.00;;;;5081587;28;20214;-76
2021/03/17 09:17:22;;;;;;;0.63;0.20;;;;;12.80;102505.00;;;;5074860;28;20715;-76
2021/03/17 09:19:58;;;;;;;0.15;0.05;;;;;12.90;102497.00;;;;5088252;28;20219;-76
2021/03/17 09:22:43;;;;;;;0.85;0.35;;;;;12.90;102497.00;;;;5083476;28;20222;-77
2021/03/17 09:25:16;;;;;;;2.90;0.38;;;;;13.00;102499.00;;;;5084867;28;20194;-77
2021/03/17 09:27:51;;;;;;;1.08;0.32;;;;;13.10;102494.00;;;;5085121;28;20194;-77
2021/03/17 09:30:21;;;;;;;2.35;0.32;;;;;13.10;102502.00;;;;5089727;28;20207;-76
2021/03/17 09:32:49;;;;;;;4.13;0.55;;;;;13.10;102501.00;;;;5075156;28;20226;-76
2021/03/17 09:35:17;;;;;;;1.50;0.35;;;;;13.10;102496.00;;;;5074864;28;20657;-75
2021/03/17 09:37:44;;;;;;;0.25;0.15;;;;;13.10;102494.00;;;;5077428;28;20292;-76
2021/03/17 09:40:15;;;;;;;1.10;0.50;;;;;13.10;102508.00;;;;5071251;28;20198;-75
2021/03/17 09:42:42;;;;;;;3.80;0.63;;;;;13.10;102511.00;;;;5086911;28;20309;-77
2021/03/17 09:45:10;;;;;;;0.95;0.35;;;;;13.10;102509.00;;;;5086746;28;20198;-76
2021/03/17 09:47:38;;;;;;;0.88;0.43;;;;;13.00;102514.00;;;;5081216;28;20250;-76
2021/03/17 09:50:15;;;;;;;1.27;0.35;;;;;12.90;102523.00;;;;5088836;28;20210;-76
2021/03/17 09:52:45;;;;;;;2.15;0.70;;;;;13.00;102511.00;;;;5085549;28;20202;-76
2021/03/17 09:55:29;;;;;;;1.58;0.70;;;;;12.90;102517.00;;;;5083798;28;20203;-76
2021/03/17 09:58:04;;;;;;;0.75;0.40;;;;;13.00;102508.00;;;;5081352;28;20217;-76
2021/03/17 10:00:33;;;;;;;1.92;0.30;;;;;13.10;102516.00;;;;5082753;28;20197;-76
2021/03/17 10:03:01;;;;;;;0.95;0.68;;;;;13.10;102508.00;;;;5087390;28;20778;-76
2021/03/17 10:05:29;;;;;;;4.13;0.55;;;;;13.10;102520.00;;;;5086171;28;20245;-76
2021/03/17 10:07:57;;;;;;;1.58;0.55;;;;;13.10;102519.00;;;;5073657;28;20195;-76
2021/03/17 10:10:24;;;;;;;1.58;0.52;;;;;13.10;102518.00;;;;5085591;28;20194;-76
2021/03/17 10:12:52;;;;;;;2.20;0.32;;;;;13.10;102513.00;;;;5082099;28;20218;-76
2021/03/17 10:15:20;;;;;;;1.50;0.50;;;;;13.10;102520.00;;;;5084762;28;20659;-75
2021/03/17 10:17:48;;;;;;;1.75;0.52;;;;;13.10;102517.00;;;;5073489;28;20199;-76
2021/03/17 10:20:16;;;;;;;1.55;0.50;;;;;13.10;102519.00;;;;5070033;28;20202;-76
2021/03/17 10:22:45;;;;;;;1.65;0.30;;;;;13.10;102516.00;;;;5071556;28;20219;-76
2021/03/17 10:25:15;;;;;;;0.43;0.10;;;;;13.10;102514.00;;;;5076719;28;20789;-77
2021/03/17 10:27:44;;;;;;;2.17;0.65;;;;;13.20;102503.00;;;;5075791;28;20237;-78
2021/03/17 10:30:13;;;;;;;1.92;0.60;;;;;13.20;102504.00;;;;5082332;28;20206;-77
2021/03/17 10:32:43;;;;;;;1.70;0.40;;;;;13.30;102504.00;;;;5083409;28;20214;-77
2021/03/17 10:35:12;;;;;;;1.27;0.40;;;;;13.30;102505.00;;;;5089006;28;20201;-76
2021/03/17 10:37:40;;;;;;;0.80;0.20;;;;;13.40;102498.00;;;;5074354;28;20195;-77
2021/03/17 10:40:11;;;;;;;0.30;0.20;;;;;13.50;102502.00;;;;5086061;28;20209;-77
2021/03/17 10:42:47;;;;;;;1.08;0.40;;;;;13.60;102516.00;;;;5085798;28;20222;-76
2021/03/17 10:45:16;;;;;;;1.23;0.43;;;;;13.70;102501.00;;;;5079943;28;20189;-77
2021/03/17 10:47:45;;;;;;;2.35;0.30;;;;;13.70;102501.00;;;;5074801;28;20242;-77
2021/03/17 10:50:14;;;;;;;0.93;0.20;;;;;13.80;102512.00;;;;5087510;28;20209;-77
2021/03/17 10:52:43;;;;;;;1.85;0.20;;;;;13.80;102516.00;;;;5084609;28;20190;-77
2021/03/17 10:55:16;;;;;;;2.63;0.40;;;;;13.90;102511.00;;;;5084822;28;20559;-77
2021/03/17 10:57:44;;;;;;;2.97;0.40;;;;;13.80;102500.00;;;;5070620;28;20191;-77
2021/03/17 11:00:17;;;;;;;1.50;0.20;;;;;13.80;102505.00;;;;5076188;28;20202;-77
2021/03/17 11:02:44;;;;;;;0.70;0.30;;;;;13.80;102505.00;;;;5077182;28;20210;-77
2021/03/17 11:05:16;;;;;;;0.90;0.30;;;;;13.80;102507.00;;;;5087957;28;20198;-75
2021/03/17 11:08:11;;;;;;;3.80;0.50;;;;;13.80;102509.00;;;;5086334;28;20197;-75
2021/03/17 11:11:03;;;;;;;1.20;0.30;;;;;13.80;102520.00;;;;5086732;28;20198;-77
2021/03/17 11:13:44;;;;;;;1.23;0.20;;;;;13.80;102520.00;;;;5085097;28;20201;-76
2021/03/17 11:16:35;;;;;;;0.35;0.20;;;;;13.80;102515.00;;;;5082609;28;20190;-76
2021/03/17 11:19:03;;;;;;;0.93;0.30;;;;;13.90;102511.00;;;;5079848;28;20684;-77
2021/03/17 11:21:32;;;;;;;1.25;0.20;;;;;13.90;102513.00;;;;5087934;28;20674;-76
2021/03/17 11:24:00;;;;;;;0.85;0.28;;;;;14.00;102516.00;;;;5080987;28;20222;-76
2021/03/17 11:26:30;;;;;;;0.88;0.30;;;;;14.10;102508.00;;;;5083830;28;20199;-78
2021/03/17 11:28:59;;;;;;;1.70;0.30;;;;;14.20;102503.00;;;;5075844;28;20206;-78
2021/03/17 11:31:32;;;;;;;0.50;0.20;;;;;14.20;102502.00;;;;5074255;28;20202;-79
2021/03/17 11:34:00;;;;;;;2.40;0.20;;;;;14.30;102498.00;;;;5085837;28;20198;-79
2021/03/17 11:36:28;;;;;;;1.08;0.28;;;;;14.20;102504.00;;;;5080325;28;20669;-78
2021/03/17 11:38:57;;;;;;;2.20;0.52;;;;;14.30;102497.00;;;;5088504;28;20205;-78
2021/03/17 11:41:25;;;;;;;3.50;0.38;;;;;14.20;102498.00;;;;5087343;28;20398;-78
2021/03/17 11:43:53;;;;;;;1.45;0.30;;;;;14.20;102506.00;;;;5087051;28;20225;-78
2021/03/17 11:46:20;;;;;;;0.95;0.30;;;;;14.10;102508.00;;;;5082407;28;20670;-78
2021/03/17 11:48:47;;;;;;;1.13;0.68;;;;;14.10;102503.00;;;;5075979;28;20276;-78
2021/03/17 11:51:16;;;;;;;0.80;0.17;;;;;14.10;102496.00;;;;5085688;28;20230;-78
2021/03/17 11:53:43;;;;;;;1.02;0.47;;;;;14.10;102499.00;;;;5073319;28;20198;-77
2021/03/17 11:56:10;;;;;;;0.35;0.25;;;;;14.10;102497.00;;;;5086556;28;20249;-77
2021/03/17 11:58:38;;;;;;;0.68;0.20;;;;;14.10;102493.00;;;;5082515;28;20207;-77
2021/03/17 12:01:06;;;;;;;1.08;0.20;;;;;14.20;102491.00;;;;5077372;28;20198;-78
2021/03/17 12:03:32;;;;;;;0.90;0.20;;;;;14.20;102486.00;;;;5079162;28;20217;-79
2021/03/17 12:06:00;;;;;;;1.63;0.22;;;;;14.30;102479.00;;;;5087838;28;20255;-78
2021/03/17 12:08:27;;;;;;;1.70;0.30;;;;;14.40;102479.00;;;;5084153;28;20186;-77
2021/03/17 12:10:55;;;;;;;1.10;0.22;;;;;14.60;102492.00;;;;5075798;28;20727;-77
2021/03/17 12:13:22;;;;;;;1.08;0.20;;;;;14.60;102483.00;;;;5084163;28;20567;-78
2021/03/17 12:15:49;;;;;;;0.85;0.55;;;;;14.60;102487.00;;;;5084966;28;20202;-79
2021/03/17 12:18:18;;;;;;;3.03;0.63;;;;;14.60;102488.00;;;;5069251;28;20203;-77
2021/03/17 12:20:45;;;;;;;2.25;0.32;;;;;14.60;102512.00;;;;5077868;28;20197;-77
2021/03/17 12:23:13;;;;;;;0.82;0.20;;;;;14.50;102509.00;;;;5075147;28;20234;-78
2021/03/17 12:25:39;;;;;;;0.70;0.32;;;;;14.50;102516.00;;;;5079141;28;20204;-77